Time;durP1;ratioP1;P1;durP2;ratioP2;P2;SDS_P1;SDS_P2;PMS_P1;PMS_P2;Temp;Humidity;BMP_temperature;BMP_pressure;BME280_temperature;BME280_humidity;BME280_pressure;Samples;Min_cycle;Max_cycle;Signal;HPM_P1;HPM_P2
2022/07/22 00:00:15;;;;;;;7.10;2.65;;;;;;;25.87;39.05;101239.89;1698049;84;21078;-50
2022/07/22 00:02:42;;;;;;;3.92;3.10;;;;;;;25.86;39.16;101237.73;1731516;81;20995;-52
2022/07/22 00:05:11;;;;;;;8.75;3.22;;;;;;;25.86;39.24;101238.21;1731459;81;20996;-51
2022/07/22 00:07:39;;;;;;;6.37;2.70;;;;;;;25.84;39.48;101239.16;1733697;81;20995;-50
2022/07/22 00:10:10;;;;;;;5.08;2.33;;;;;;;25.83;39.76;101237.48;1731797;81;21510;-50
2022/07/22 00:12:38;;;;;;;7.95;2.75;;;;;;;25.82;39.98;101230.44;1728395;81;21003;-49
2022/07/22 00:15:08;;;;;;;4.87;2.47;;;;;;;25.82;40.09;101238.44;1700239;84;21484;-52
2022/07/22 00:17:36;;;;;;;7.20;2.70;;;;;;;25.82;40.18;101233.61;1698808;84;20966;-54
2022/07/22 00:20:06;;;;;;;5.47;2.50;;;;;;;25.82;40.23;101234.95;1698910;83;21026;-50
2022/07/22 00:22:33;;;;;;;6.08;2.60;;;;;;;25.82;40.26;101235.77;1697059;84;21050;-51
2022/07/22 00:25:00;;;;;;;5.62;1.98;;;;;;;25.82;40.34;101234.44;1697863;84;21026;-49
2022/07/22 00:27:27;;;;;;;7.35;2.40;;;;;;;25.83;40.51;101239.30;1698605;83;21534;-50
2022/07/22 00:29:54;;;;;;;4.22;2.27;;;;;;;25.82;40.66;101233.11;1700008;83;20982;-50
2022/07/22 00:32:21;;;;;;;4.50;1.80;;;;;;;25.82;40.81;101232.28;1734885;81;21039;-49
2022/07/22 00:34:48;;;;;;;3.58;1.90;;;;;;;25.81;41.09;101232.76;1734275;81;21000;-50
2022/07/22 00:37:17;;;;;;;5.25;2.47;;;;;;;25.81;41.45;101231.42;1738639;81;21038;-49
2022/07/22 00:39:43;;;;;;;5.45;1.40;;;;;;;25.81;41.75;101235.42;1733457;81;21019;-49
2022/07/22 00:42:10;;;;;;;3.17;1.45;;;;;;;25.79;41.97;101236.02;1733751;82;21078;-48
2022/07/22 00:44:37;;;;;;;5.17;1.40;;;;;;;25.79;42.15;101240.02;1734694;81;21055;-50
2022/07/22 00:47:04;;;;;;;3.12;1.40;;;;;;;25.82;42.38;101242.44;1733673;81;21019;-50
2022/07/22 00:49:31;;;;;;;6.65;1.62;;;;;;;25.83;43.45;101236.16;1732019;81;21016;-52
2022/07/22 00:51:58;;;;;;;2.47;1.42;;;;;;;25.83;44.03;101244.15;1731610;81;21015;-49
2022/07/22 00:54:25;;;;;;;3.08;1.40;;;;;;;25.83;44.20;101238.81;1731410;81;21027;-49
2022/07/22 00:56:51;;;;;;;2.72;1.32;;;;;;;25.86;44.35;101244.88;1731808;81;21012;-50
2022/07/22 00:59:18;;;;;;;3.45;1.35;;;;;;;25.88;44.98;101247.80;1732338;81;21027;-50
2022/07/22 01:01:45;;;;;;;1.87;1.10;;;;;;;25.91;45.40;101252.02;1701116;84;21527;-50
2022/07/22 01:04:11;;;;;;;3.75;1.60;;;;;;;25.93;45.58;101248.75;1700684;84;21041;-49
2022/07/22 01:06:38;;;;;;;4.83;1.55;;;;;;;25.96;45.27;101245.86;1699010;83;21046;-51
2022/07/22 01:09:05;;;;;;;3.15;1.47;;;;;;;25.99;45.70;101253.64;1699910;84;21034;-51
2022/07/22 01:11:32;;;;;;;8.33;1.90;;;;;;;26.01;46.45;101251.70;1728642;82;21078;-49
2022/07/22 01:13:59;;;;;;;3.47;1.55;;;;;;;26.05;47.06;101247.82;1731324;81;21503;-49
2022/07/22 01:16:27;;;;;;;2.27;1.50;;;;;;;26.08;46.72;101250.27;1731471;81;21019;-48
2022/07/22 01:18:54;;;;;;;4.50;1.52;;;;;;;26.10;46.62;101249.19;1731622;81;21015;-50
2022/07/22 01:21:21;;;;;;;2.70;1.50;;;;;;;26.13;46.76;101242.77;1731366;81;21035;-52
2022/07/22 01:23:48;;;;;;;3.95;1.32;;;;;;;26.16;46.01;101241.17;1732585;80;21550;-50
2022/07/22 01:26:15;;;;;;;4.47;1.40;;;;;;;26.18;45.53;101247.23;1734573;81;21031;-53
2022/07/22 01:28:44;;;;;;;5.67;1.77;;;;;;;26.18;45.26;101245.42;1700784;84;21002;-50
2022/07/22 01:31:10;;;;;;;6.55;1.50;;;;;;;26.20;45.12;101247.48;1698369;84;21109;-51
2022/07/22 01:33:37;;;;;;;5.70;1.50;;;;;;;26.19;44.82;101244.47;1699845;84;21022;-52
2022/07/22 01:36:07;;;;;;;2.05;1.32;;;;;;;26.21;45.14;101244.34;1699891;84;20997;-52
2022/07/22 01:38:33;;;;;;;2.70;1.30;;;;;;;26.20;44.67;101245.30;1734717;81;21062;-49
2022/07/22 01:41:01;;;;;;;2.80;1.50;;;;;;;26.19;44.50;101240.47;1699353;84;21046;-48
2022/07/22 01:43:28;;;;;;;4.37;1.32;;;;;;;26.19;44.27;101239.13;1689018;83;21645;-51
2022/07/22 01:45:55;;;;;;;3.30;1.35;;;;;;;26.19;44.17;101238.28;1697960;84;21081;-52
2022/07/22 01:48:23;;;;;;;1.65;1.30;;;;;;;26.18;44.23;101240.56;1699204;84;21505;-50
2022/07/22 01:50:49;;;;;;;6.55;1.37;;;;;;;26.17;44.31;101237.55;1731841;82;21031;-55
2022/07/22 01:53:16;;;;;;;1.98;1.37;;;;;;;26.16;44.13;101236.69;1735227;81;21067;-51
2022/07/22 01:55:44;;;;;;;6.25;1.50;;;;;;;26.15;44.18;101235.48;1734052;81;21035;-51
2022/07/22 01:58:11;;;;;;;3.05;1.20;;;;;;;26.14;44.40;101235.97;1697980;84;21015;-48
2022/07/22 02:00:38;;;;;;;3.25;1.60;;;;;;;26.13;44.38;101232.09;1697513;84;21061;-49
2022/07/22 02:03:06;;;;;;;1.52;1.37;;;;;;;26.12;44.81;101233.05;1692316;84;21030;-50
2022/07/22 02:05:33;;;;;;;2.70;1.35;;;;;;;26.10;44.77;101233.17;1735094;81;21056;-52
2022/07/22 02:08:03;;;;;;;2.95;1.20;;;;;;;26.10;44.53;101236.32;1732720;81;21093;-49
2022/07/22 02:10:32;;;;;;;6.87;1.70;;;;;;;26.08;44.27;101232.45;1697234;84;21612;-48
2022/07/22 02:13:00;;;;;;;4.42;1.50;;;;;;;26.07;44.27;101232.06;1736733;82;21035;-49
2022/07/22 02:15:27;;;;;;;4.22;1.50;;;;;;;26.07;44.28;101239.21;1688015;84;21003;-52
2022/07/22 02:17:55;;;;;;;2.65;1.12;;;;;;;26.07;44.07;101233.87;1733314;81;21039;-48
2022/07/22 02:20:23;;;;;;;3.42;1.30;;;;;;;26.05;43.65;101228.64;1732044;81;21070;-49
2022/07/22 02:22:52;;;;;;;3.67;1.37;;;;;;;26.04;43.54;101234.11;1737230;81;21062;-51
2022/07/22 02:25:20;;;;;;;3.00;1.32;;;;;;;26.02;43.47;101240.91;1735244;82;21030;-48
2022/07/22 02:27:46;;;;;;;1.95;1.05;;;;;;;26.00;43.32;101237.98;1734676;81;21020;-50
2022/07/22 02:30:14;;;;;;;4.83;1.55;;;;;;;25.98;43.34;101237.25;1699953;84;21018;-48
2022/07/22 02:32:41;;;;;;;3.65;1.60;;;;;;;25.97;43.27;101236.87;1697327;84;21062;-49
2022/07/22 02:35:08;;;;;;;6.42;1.45;;;;;;;25.96;43.27;101238.72;1697078;83;20991;-50
2022/07/22 02:37:37;;;;;;;2.33;1.17;;;;;;;25.96;43.26;101243.19;1732237;81;21074;-54
2022/07/22 02:40:06;;;;;;;2.85;1.25;;;;;;;25.96;43.31;101244.52;1731037;81;21551;-49
2022/07/22 02:42:33;;;;;;;2.55;1.20;;;;;;;25.95;43.30;101244.14;1731899;81;20995;-51
2022/07/22 02:45:02;;;;;;;4.28;1.57;;;;;;;25.94;43.44;101246.47;1733657;81;21082;-49
2022/07/22 02:47:29;;;;;;;2.33;1.35;;;;;;;25.93;43.30;101242.08;1705093;81;21082;-50
2022/07/22 02:49:55;;;;;;;4.05;1.02;;;;;;;25.92;43.22;101239.92;1733185;81;21047;-48
2022/07/22 02:52:22;;;;;;;1.72;1.10;;;;;;;25.91;43.11;101248.02;1733952;82;21020;-52
2022/07/22 02:54:49;;;;;;;2.58;1.17;;;;;;;25.90;43.03;101242.34;1700758;84;21086;-49
2022/07/22 02:57:16;;;;;;;2.05;1.30;;;;;;;25.88;42.97;101246.94;1734747;81;21475;-51
2022/07/22 02:59:43;;;;;;;4.53;1.32;;;;;;;25.87;42.94;101249.23;1698619;84;21022;-51
2022/07/22 03:02:10;;;;;;;3.60;1.87;;;;;;;25.87;42.85;101245.23;1697291;84;21572;-53
2022/07/22 03:04:37;;;;;;;2.00;1.45;;;;;;;25.86;42.91;101246.21;1698441;84;21022;-50
2022/07/22 03:07:05;;;;;;;1.62;1.47;;;;;;;25.86;43.04;101250.21;1697800;82;21030;-50
2022/07/22 03:09:32;;;;;;;2.80;1.80;;;;;;;25.86;43.28;101240.87;1697937;84;21542;-52
2022/07/22 03:12:00;;;;;;;2.15;1.15;;;;;;;25.86;43.41;101246.21;1700257;84;21020;-49
2022/07/22 03:14:28;;;;;;;1.77;1.15;;;;;;;25.84;43.35;101239.16;1730620;82;21039;-50
2022/07/22 03:16:55;;;;;;;4.90;1.17;;;;;;;25.86;43.28;101244.88;1730565;81;21031;-48
2022/07/22 03:19:23;;;;;;;2.33;1.45;;;;;;;25.86;43.38;101244.41;1731404;81;21016;-51
2022/07/22 03:21:51;;;;;;;3.87;1.60;;;;;;;25.88;43.43;101244.27;1731807;81;21034;-48
2022/07/22 03:24:18;;;;;;;2.17;1.12;;;;;;;25.89;43.38;101245.95;1731545;81;21027;-51
2022/07/22 03:26:47;;;;;;;2.65;1.07;;;;;;;25.90;43.33;101249.86;1732249;81;21018;-48
2022/07/22 03:29:13;;;;;;;3.37;1.30;;;;;;;25.91;43.47;101252.88;1735060;81;21058;-49
2022/07/22 03:31:40;;;;;;;4.55;1.62;;;;;;;25.94;43.63;101250.47;1700938;84;21066;-53
2022/07/22 03:34:07;;;;;;;2.15;1.20;;;;;;;25.96;44.27;101255.19;1732394;81;21550;-50
2022/07/22 03:36:36;;;;;;;4.12;1.57;;;;;;;25.99;44.58;101252.30;1699279;84;21537;-48
2022/07/22 03:39:04;;;;;;;1.67;1.20;;;;;;;26.02;44.77;101252.91;1699890;84;21058;-48
2022/07/22 03:41:31;;;;;;;4.75;1.70;;;;;;;26.11;44.59;101255.38;1734656;81;21499;-50
2022/07/22 03:43:57;;;;;;;6.87;1.60;;;;;;;26.21;44.66;101249.67;1734597;81;21094;-51
2022/07/22 03:46:24;;;;;;;4.08;1.87;;;;;;;26.32;44.60;101249.17;1723843;81;21039;-50
2022/07/22 03:48:51;;;;;;;6.08;1.85;;;;;;;26.45;44.04;101251.72;1732148;81;21066;-50
2022/07/22 03:51:18;;;;;;;5.33;1.72;;;;;;;26.61;43.96;101253.52;1694829;84;21018;-50
2022/07/22 03:53:45;;;;;;;2.72;1.60;;;;;;;26.89;43.49;101253.02;1701084;84;21011;-49
2022/07/22 03:56:12;;;;;;;3.47;1.65;;;;;;;27.27;42.81;101252.03;1699311;82;21030;-52
2022/07/22 03:58:41;;;;;;;6.92;1.92;;;;;;;27.75;41.85;101252.91;1698496;84;21499;-49
2022/07/22 04:01:07;;;;;;;3.83;1.80;;;;;;;28.25;40.49;101257.93;1699855;84;21057;-50
2022/07/22 04:03:34;;;;;;;3.33;2.08;;;;;;;28.58;39.71;101247.81;1701043;84;21053;-49
2022/07/22 04:06:09;;;;;;;4.00;1.50;;;;;;;28.70;39.36;101255.23;1700978;84;21030;-50
2022/07/22 04:08:40;;;;;;;2.87;1.45;;;;;;;28.71;39.03;101257.77;1696879;84;21030;-50
2022/07/22 04:11:07;;;;;;;4.90;1.50;;;;;;;28.68;38.94;101252.70;1699053;84;21030;-50
2022/07/22 04:13:34;;;;;;;3.62;1.77;;;;;;;28.61;38.60;101260.91;1697508;84;21014;-48
2022/07/22 04:16:00;;;;;;;2.80;1.87;;;;;;;28.48;38.77;101262.94;1689647;83;21042;-49
2022/07/22 04:18:31;;;;;;;2.37;1.57;;;;;;;28.37;38.88;101259.05;1700186;84;21510;-52
2022/07/22 04:20:59;;;;;;;3.70;1.60;;;;;;;28.25;39.54;101260.13;1741426;81;21023;-50
2022/07/22 04:23:43;;;;;;;2.58;1.77;;;;;;;28.14;39.52;101262.88;1653848;86;21111;-50
2022/07/22 04:26:12;;;;;;;3.87;1.47;;;;;;;28.02;39.71;101267.48;1666591;85;21039;-51
2022/07/22 04:28:40;;;;;;;4.95;1.90;;;;;;;27.92;40.23;101275.05;1687461;83;21007;-49
2022/07/22 04:31:07;;;;;;;6.37;1.95;;;;;;;27.80;40.17;101276.11;1666380;85;21008;-49
2022/07/22 04:33:36;;;;;;;4.75;1.85;;;;;;;27.69;40.25;101266.80;1651009;86;21009;-50
2022/07/22 04:36:05;;;;;;;4.90;1.65;;;;;;;27.59;40.36;101267.22;1691966;83;21487;-51
2022/07/22 04:38:32;;;;;;;5.03;1.67;;;;;;;27.50;39.60;101273.33;1693212;83;21574;-50
2022/07/22 04:41:02;;;;;;;2.77;1.75;;;;;;;27.41;39.38;101272.78;1689532;83;21066;-49
2022/07/22 04:43:29;;;;;;;5.62;2.10;;;;;;;27.31;39.50;101274.84;1690981;83;21074;-50
2022/07/22 04:45:56;;;;;;;4.78;1.72;;;;;;;27.24;39.83;101278.16;1643947;86;21089;-53
2022/07/22 04:48:23;;;;;;;4.45;1.70;;;;;;;27.16;39.78;101269.43;1667119;84;21023;-52
2022/07/22 04:50:50;;;;;;;3.27;1.55;;;;;;;27.11;40.33;101269.45;1669066;84;21118;-49
2022/07/22 04:53:17;;;;;;;3.85;1.82;;;;;;;27.06;40.52;101277.02;1693188;83;21487;-53
2022/07/22 04:55:44;;;;;;;5.45;1.90;;;;;;;27.03;40.79;101274.11;1692670;83;21114;-51
2022/07/22 04:58:11;;;;;;;4.97;1.60;;;;;;;27.02;40.86;101268.38;1666408;85;21055;-48
2022/07/22 05:00:38;;;;;;;3.15;1.70;;;;;;;27.01;40.95;101271.19;1691375;83;21082;-50
2022/07/22 05:03:05;;;;;;;8.00;1.80;;;;;;;27.01;41.30;101271.19;1694214;83;21067;-49
2022/07/22 05:05:32;;;;;;;3.12;1.67;;;;;;;27.00;41.26;101274.34;1693488;83;21498;-53
2022/07/22 05:08:01;;;;;;;5.03;1.50;;;;;;;27.02;41.16;101269.72;1651955;86;21006;-54
2022/07/22 05:10:28;;;;;;;4.87;2.00;;;;;;;27.05;41.13;101266.81;1690390;83;21015;-50
2022/07/22 05:12:56;;;;;;;2.10;1.40;;;;;;;27.04;41.25;101270.45;1690662;83;21027;-49
2022/07/22 05:15:26;;;;;;;3.83;1.50;;;;;;;27.09;41.63;101272.27;1694751;83;21039;-52
2022/07/22 05:17:52;;;;;;;2.77;1.70;;;;;;;27.15;41.67;101273.09;1733999;81;20999;-51
2022/07/22 05:20:23;;;;;;;3.67;1.67;;;;;;;27.29;41.50;101266.59;1696616;84;21022;-51
2022/07/22 05:22:50;;;;;;;5.30;1.77;;;;;;;27.49;41.85;101271.17;1698270;84;21022;-56
2022/07/22 05:25:19;;;;;;;5.85;1.75;;;;;;;27.71;41.23;101271.05;1696484;84;21050;-51
2022/07/22 05:27:52;;;;;;;9.23;2.27;;;;;;;27.93;40.26;101270.04;1697575;84;21023;-49
2022/07/22 05:30:21;;;;;;;1.92;1.42;;;;;;;28.11;39.96;101264.47;1693088;84;21043;-49
2022/07/22 05:32:49;;;;;;;4.97;1.60;;;;;;;28.27;38.89;101263.52;1731239;81;21042;-53
2022/07/22 05:35:18;;;;;;;6.08;1.60;;;;;;;28.37;38.81;101265.73;1733735;81;21089;-52
2022/07/22 05:37:46;;;;;;;2.65;1.70;;;;;;;28.42;38.73;101258.13;1733429;81;21074;-50
2022/07/22 05:40:13;;;;;;;2.77;1.55;;;;;;;28.47;38.91;101265.28;1731681;81;21074;-52
2022/07/22 05:42:40;;;;;;;3.25;1.72;;;;;;;28.52;38.50;101268.89;1730921;82;21525;-51
2022/07/22 05:45:08;;;;;;;2.40;1.30;;;;;;;28.55;38.38;101265.44;1720182;81;21060;-50
2022/07/22 05:47:36;;;;;;;3.42;1.47;;;;;;;28.59;38.35;101258.86;1726013;81;21085;-49
2022/07/22 05:50:04;;;;;;;2.42;1.67;;;;;;;28.65;38.46;101265.01;1729539;81;21035;-53
2022/07/22 05:52:38;;;;;;;4.83;1.90;;;;;;;28.69;38.68;101263.75;1724649;81;21087;-51
2022/07/22 05:55:07;;;;;;;2.17;1.50;;;;;;;28.75;38.72;101261.00;1724548;82;21050;-54
2022/07/22 05:57:34;;;;;;;5.12;1.90;;;;;;;28.78;38.59;101264.28;1721622;82;21116;-50
2022/07/22 06:00:04;;;;;;;4.22;1.80;;;;;;;28.82;38.49;101266.18;1728064;81;21066;-51
2022/07/22 06:02:33;;;;;;;4.85;1.72;;;;;;;28.81;38.32;101268.00;1722149;81;21019;-51
2022/07/22 06:05:02;;;;;;;2.47;1.50;;;;;;;28.83;38.41;101271.39;1723307;81;21558;-51
2022/07/22 06:07:31;;;;;;;4.37;1.62;;;;;;;28.88;38.39;101275.86;1722540;81;21573;-49
2022/07/22 06:09:59;;;;;;;6.70;1.67;;;;;;;28.96;37.83;101273.33;1722881;81;21532;-51
2022/07/22 06:12:28;;;;;;;2.72;1.95;;;;;;;29.06;37.20;101270.65;1719030;81;21019;-51
2022/07/22 06:14:55;;;;;;;3.67;1.62;;;;;;;29.21;37.41;101267.10;1724562;81;20979;-51
2022/07/22 06:17:21;;;;;;;1.87;1.30;;;;;;;29.34;36.86;101263.66;1724195;81;21507;-54
2022/07/22 06:19:48;;;;;;;3.27;1.50;;;;;;;29.45;36.67;101258.98;1725446;82;21046;-49
2022/07/22 06:22:17;;;;;;;4.28;1.90;;;;;;;29.58;36.58;101254.19;1726012;81;21516;-53
2022/07/22 06:24:45;;;;;;;3.22;1.67;;;;;;;29.72;36.82;101254.22;1725796;81;21007;-49
2022/07/22 06:27:12;;;;;;;5.12;1.70;;;;;;;29.83;35.81;101250.08;1729680;81;21503;-53
2022/07/22 06:29:40;;;;;;;2.27;1.60;;;;;;;29.90;35.91;101247.18;1731211;81;21010;-51
2022/07/22 06:32:08;;;;;;;5.70;1.90;;;;;;;29.94;35.92;101247.23;1731715;81;21019;-52
2022/07/22 06:34:35;;;;;;;4.15;1.70;;;;;;;29.92;35.27;101249.22;1731371;81;21046;-51
2022/07/22 06:37:04;;;;;;;7.28;1.82;;;;;;;29.88;35.26;101253.19;1731414;81;21019;-51
2022/07/22 06:39:32;;;;;;;2.75;1.72;;;;;;;29.82;35.60;101249.72;1731750;81;21023;-52
2022/07/22 06:42:18;;;;;;;2.70;1.60;;;;;;;29.74;35.95;101248.25;1740765;81;21026;-57
2022/07/22 06:44:52;;;;;;;3.27;1.67;;;;;;;29.69;36.44;101245.14;1729479;81;21557;-54
2022/07/22 06:47:38;;;;;;;2.08;1.72;;;;;;;29.67;36.47;101248.46;1708083;82;21015;-54
2022/07/22 06:50:07;;;;;;;3.30;1.57;;;;;;;29.64;36.44;101251.41;1734470;82;21561;-51
2022/07/22 06:52:33;;;;;;;2.98;1.90;;;;;;;29.61;36.16;101250.37;1734673;81;21507;-51
2022/07/22 06:55:01;;;;;;;3.55;1.72;;;;;;;29.55;36.36;101244.25;1699597;84;20995;-51
2022/07/22 06:57:29;;;;;;;4.42;1.92;;;;;;;29.51;36.38;101246.87;1730621;81;21015;-51
2022/07/22 06:59:56;;;;;;;5.58;2.05;;;;;;;29.49;36.52;101252.87;1731598;81;21468;-54
2022/07/22 07:02:23;;;;;;;3.75;1.70;;;;;;;29.49;36.61;101251.53;1731678;81;21065;-52
2022/07/22 07:04:50;;;;;;;3.72;1.65;;;;;;;29.49;36.68;101248.84;1727543;81;21901;-50
2022/07/22 07:07:18;;;;;;;2.45;1.65;;;;;;;29.51;36.59;101250.89;1732972;81;21003;-52
2022/07/22 07:09:52;;;;;;;4.47;1.90;;;;;;;29.49;36.79;101246.17;1733068;81;21563;-53
2022/07/22 07:12:21;;;;;;;7.28;1.90;;;;;;;29.51;36.71;101246.87;1731088;82;21558;-49
2022/07/22 07:15:07;;;;;;;3.40;2.00;;;;;;;29.53;36.90;101244.89;1721341;81;21023;-49
2022/07/22 07:17:34;;;;;;;5.17;1.95;;;;;;;29.59;36.51;101247.81;1733072;81;21006;-53
2022/07/22 07:20:02;;;;;;;7.67;1.85;;;;;;;29.66;36.23;101253.46;1733085;81;21034;-51
2022/07/22 07:22:29;;;;;;;5.75;2.10;;;;;;;29.71;36.08;101247.19;1730043;82;21019;-52
2022/07/22 07:24:56;;;;;;;5.33;2.27;;;;;;;29.80;36.30;101251.70;1734265;81;21012;-50
2022/07/22 07:27:24;;;;;;;4.12;1.90;;;;;;;29.89;36.47;101254.01;1734392;81;21062;-53
2022/07/22 07:29:52;;;;;;;4.47;1.90;;;;;;;29.97;36.24;101248.27;1733136;81;20999;-51
2022/07/22 07:32:19;;;;;;;5.35;2.08;;;;;;;30.02;36.01;101254.06;1731228;81;21016;-53
2022/07/22 07:34:46;;;;;;;4.97;2.02;;;;;;;30.04;35.96;101250.73;1731907;81;20989;-52
2022/07/22 07:37:13;;;;;;;6.87;2.08;;;;;;;30.05;36.00;101254.23;1730965;81;21011;-50
2022/07/22 07:39:40;;;;;;;5.75;1.98;;;;;;;30.05;36.07;101254.23;1731849;81;21491;-49
2022/07/22 07:42:09;;;;;;;5.20;2.52;;;;;;;30.05;36.32;101263.14;1732562;81;21055;-50
2022/07/22 07:44:36;;;;;;;4.62;2.05;;;;;;;30.09;36.26;101265.06;1730178;82;21106;-50
2022/07/22 07:47:03;;;;;;;5.55;2.08;;;;;;;30.14;36.34;101268.98;1723713;81;21086;-50
2022/07/22 07:49:31;;;;;;;5.95;2.10;;;;;;;30.21;36.56;101266.05;1690068;84;21022;-52
2022/07/22 07:51:58;;;;;;;4.28;2.45;;;;;;;30.26;36.34;101270.50;1728083;81;21456;-52
2022/07/22 07:54:24;;;;;;;2.17;1.92;;;;;;;30.25;36.38;101268.78;1734725;81;21011;-52
2022/07/22 07:56:53;;;;;;;3.08;2.27;;;;;;;30.24;36.55;101272.97;1699376;84;21534;-52
2022/07/22 07:59:20;;;;;;;3.12;2.27;;;;;;;30.21;36.75;101266.05;1698972;84;21092;-50
2022/07/22 08:01:47;;;;;;;3.35;2.00;;;;;;;30.19;36.75;101270.72;1700155;84;21018;-52
2022/07/22 08:04:13;;;;;;;5.25;1.98;;;;;;;30.19;36.78;101269.90;1701079;84;21010;-53
2022/07/22 08:06:41;;;;;;;35.05;4.17;;;;;;;30.19;36.75;101270.72;1688402;84;21308;-53
2022/07/22 08:09:08;;;;;;;5.75;2.80;;;;;;;30.21;36.96;101270.08;1706586;84;21033;-52
2022/07/22 08:11:37;;;;;;;8.28;2.40;;;;;;;30.23;37.06;101269.44;1734333;82;21035;-49
2022/07/22 08:14:22;;;;;;;4.42;2.15;;;;;;;30.26;36.88;101270.50;1730019;82;21034;-52
2022/07/22 08:17:00;;;;;;;6.17;2.25;;;;;;;30.29;36.42;101267.56;1699928;84;21014;-48
2022/07/22 08:19:28;;;;;;;6.47;2.20;;;;;;;30.32;36.48;101263.22;1700789;84;21514;-53
2022/07/22 08:21:55;;;;;;;4.17;2.22;;;;;;;30.37;36.24;101260.95;1733617;81;21038;-51
2022/07/22 08:24:27;;;;;;;5.12;2.15;;;;;;;30.41;35.90;101259.66;1682201;85;21021;-51
2022/07/22 08:26:54;;;;;;;5.00;2.02;;;;;;;30.46;36.15;101268.10;1688405;85;21085;-51
2022/07/22 08:29:21;;;;;;;7.15;2.45;;;;;;;30.50;36.40;101269.49;1688423;85;21042;-52
2022/07/22 08:31:48;;;;;;;5.12;2.65;;;;;;;30.51;36.43;101265.83;1688129;85;21024;-51
2022/07/22 08:34:16;;;;;;;5.05;2.12;;;;;;;30.56;36.18;101267.22;1687942;85;21034;-49
2022/07/22 08:36:43;;;;;;;4.00;2.05;;;;;;;30.58;35.82;101262.55;1688237;85;21033;-52
2022/07/22 08:39:11;;;;;;;3.52;2.00;;;;;;;30.63;36.36;101263.78;1688446;85;21033;-55
2022/07/22 08:41:39;;;;;;;5.05;2.80;;;;;;;30.71;36.72;101268.42;1688115;85;21502;-51
2022/07/22 08:44:08;;;;;;;5.53;2.55;;;;;;;30.78;36.67;101265.46;1688223;85;21030;-50
2022/07/22 08:46:35;;;;;;;3.08;2.00;;;;;;;30.81;35.99;101263.83;1686230;85;21038;-49
2022/07/22 08:49:17;;;;;;;3.15;2.47;;;;;;;30.84;35.99;101263.52;1666716;86;21106;-50
2022/07/22 08:51:46;;;;;;;5.03;2.33;;;;;;;30.86;35.81;101268.27;1666871;86;21074;-49
2022/07/22 08:54:17;;;;;;;5.95;2.65;;;;;;;30.89;35.39;101266.64;1666576;86;21051;-53
2022/07/22 08:56:49;;;;;;;5.65;3.17;;;;;;;30.93;35.72;101269.37;1666859;85;21534;-53
2022/07/22 08:59:15;;;;;;;4.22;2.30;;;;;;;30.97;35.08;101264.03;1667071;86;21053;-51
2022/07/22 09:02:08;;;;;;;6.30;2.42;;;;;;;31.01;35.03;101265.42;1667102;86;20995;-51
2022/07/22 09:05:01;;;;;;;5.37;2.25;;;;;;;31.06;34.99;101253.69;1665730;86;21110;-49
2022/07/22 09:07:39;;;;;;;3.67;2.08;;;;;;;31.12;34.70;101261.14;1640336;86;21075;-55
2022/07/22 09:10:16;;;;;;;6.00;2.47;;;;;;;31.16;35.03;101263.91;1589002;90;21136;-50
2022/07/22 09:12:59;;;;;;;4.65;2.40;;;;;;;31.18;34.42;101260.03;1533632;93;21049;-50
2022/07/22 09:15:53;;;;;;;3.47;2.20;;;;;;;31.22;34.41;101257.91;1505815;95;21590;-52
2022/07/22 09:18:52;;;;;;;5.95;2.45;;;;;;;31.24;34.38;101251.35;1422854;101;21638;-51
2022/07/22 09:21:43;;;;;;;4.87;2.70;;;;;;;31.27;34.70;101251.55;1417543;100;21135;-53
2022/07/22 09:24:34;;;;;;;7.78;3.12;;;;;;;31.30;34.44;101247.22;1443732;99;21169;-49
2022/07/22 09:29:36;;;;;;;5.08;3.12;;;;;;;31.42;33.48;101259.45;1392698;102;21126;-49
2022/07/22 09:32:07;;;;;;;6.20;2.87;;;;;;;31.47;33.68;101259.00;1376916;103;21169;-51
2022/07/22 09:34:39;;;;;;;3.30;2.67;;;;;;;31.51;33.33;101257.16;1345932;106;21182;-51
2022/07/22 09:37:09;;;;;;;5.37;2.87;;;;;;;31.56;32.98;101264.28;1346125;106;21666;-50
2022/07/22 09:39:35;;;;;;;4.25;2.62;;;;;;;31.59;32.92;101254.56;1346087;106;21154;-52
2022/07/22 09:42:06;;;;;;;5.10;3.10;;;;;;;31.64;32.77;101250.88;1346845;106;21264;-51
2022/07/22 09:44:34;;;;;;;6.42;2.70;;;;;;;31.68;32.78;101252.26;1323163;108;21713;-50
2022/07/22 09:47:03;;;;;;;4.20;3.05;;;;;;;31.74;32.86;101248.94;1321392;106;21186;-50
2022/07/22 09:52:24;;;;;;;3.50;2.92;;;;;;;31.83;32.05;101256.08;1374041;104;21151;-50
2022/07/22 09:54:55;;;;;;;7.67;3.37;;;;;;;31.88;32.16;101254.27;1365003;105;21242;-48
2022/07/22 09:57:22;;;;;;;7.90;3.17;;;;;;;31.92;31.79;101247.03;1364950;104;21162;-51
2022/07/22 09:59:49;;;;;;;6.28;2.70;;;;;;;31.99;31.59;101250.83;1365130;105;21069;-48
2022/07/22 10:02:18;;;;;;;4.05;2.72;;;;;;;32.01;31.35;101246.13;1364956;105;21647;-51
2022/07/22 10:04:46;;;;;;;5.28;3.00;;;;;;;32.04;31.34;101253.89;1365120;105;21155;-48
2022/07/22 10:07:13;;;;;;;2.85;2.65;;;;;;;32.07;31.30;101248.17;1362070;104;21585;-50
2022/07/22 10:09:43;;;;;;;4.60;3.22;;;;;;;32.12;31.74;101245.50;1363441;103;21209;-50
2022/07/22 10:12:10;;;;;;;2.83;2.60;;;;;;;32.16;31.64;101234.75;1338203;105;21123;-48
2022/07/22 10:14:37;;;;;;;4.53;3.12;;;;;;;32.18;31.38;101243.52;1410024;100;21148;-50
2022/07/22 10:17:05;;;;;;;4.33;2.80;;;;;;;32.21;30.95;101248.59;1436278;100;21143;-51
2022/07/22 10:19:32;;;;;;;3.05;2.42;;;;;;;32.26;31.39;101243.05;1447620;98;21152;-53
2022/07/22 10:21:59;;;;;;;6.37;2.75;;;;;;;32.30;30.69;101246.27;1468752;97;21162;-48
2022/07/22 10:24:26;;;;;;;3.17;2.95;;;;;;;32.33;31.09;101245.95;1466374;97;21606;-52
2022/07/22 10:27:01;;;;;;;2.83;2.62;;;;;;;32.38;30.73;101243.60;1515394;91;21109;-48
2022/07/22 10:29:40;;;;;;;4.55;2.80;;;;;;;32.42;30.84;101236.91;1590101;89;21195;-51
2022/07/22 10:32:21;;;;;;;4.65;2.62;;;;;;;32.49;30.49;101236.63;1618238;86;21598;-49
2022/07/22 10:35:19;;;;;;;4.35;2.52;;;;;;;32.56;31.19;101241.70;1650900;86;21066;-50
2022/07/22 10:37:49;;;;;;;4.03;2.60;;;;;;;32.61;31.41;101238.85;1648557;86;21085;-48
2022/07/22 10:40:22;;;;;;;4.10;3.42;;;;;;;32.64;30.59;101237.69;1650824;86;21034;-48
2022/07/22 10:43:08;;;;;;;2.85;2.65;;;;;;;32.70;30.30;101239.23;1645299;87;21050;-50
2022/07/22 10:45:57;;;;;;;7.10;2.85;;;;;;;32.77;30.28;101241.59;1650670;86;21081;-51
2022/07/22 10:48:42;;;;;;;4.85;2.58;;;;;;;32.84;30.54;101244.48;1648425;86;21086;-49
2022/07/22 10:51:15;;;;;;;5.83;2.60;;;;;;;32.88;30.29;101242.64;1648343;86;21074;-50
2022/07/22 10:54:02;;;;;;;2.67;2.20;;;;;;;32.91;29.63;101236.58;1650556;86;21023;-51
2022/07/22 10:56:35;;;;;;;3.65;2.27;;;;;;;32.92;29.24;101235.05;1725410;81;20983;-49
2022/07/22 10:59:16;;;;;;;2.65;2.35;;;;;;;32.97;29.49;101240.81;1731828;81;21035;-49
2022/07/22 11:01:46;;;;;;;6.28;2.50;;;;;;;33.01;29.70;101234.11;1731341;81;21019;-50
2022/07/22 11:04:17;;;;;;;4.22;1.62;;;;;;;33.03;30.35;101242.87;1680414;84;21018;-52
2022/07/22 11:06:46;;;;;;;1.95;1.85;;;;;;;33.03;29.80;101232.09;1682233;85;21042;-50
2022/07/22 11:09:15;;;;;;;2.83;1.90;;;;;;;33.05;29.33;101231.41;1683438;85;21023;-51
2022/07/22 11:11:52;;;;;;;2.67;1.60;;;;;;;33.09;29.20;101240.00;1683388;84;21133;-50
2022/07/22 11:14:30;;;;;;;2.58;1.47;;;;;;;33.09;28.88;101235.45;1661502;85;21076;-49
2022/07/22 11:17:09;;;;;;;4.87;1.35;;;;;;;33.13;29.69;101245.40;1661233;85;20972;-48
2022/07/22 11:19:39;;;;;;;3.20;1.40;;;;;;;33.14;30.09;101237.13;1633817;87;21040;-48
2022/07/22 11:22:12;;;;;;;2.70;1.45;;;;;;;33.15;28.20;101244.23;1633319;87;21080;-49
2022/07/22 11:24:39;;;;;;;2.92;1.60;;;;;;;33.16;28.56;101244.55;1633743;87;21008;-50
2022/07/22 11:27:14;;;;;;;2.45;1.22;;;;;;;33.17;29.21;101238.16;1634156;87;21081;-51
2022/07/22 11:29:44;;;;;;;2.50;1.17;;;;;;;33.19;28.48;101241.53;1604714;89;21062;-51
2022/07/22 11:32:10;;;;;;;2.98;1.80;;;;;;;33.21;28.60;101241.36;1576268;90;21073;-52
2022/07/22 11:34:44;;;;;;;3.72;1.30;;;;;;;33.24;28.29;101245.08;1605356;89;21047;-52
2022/07/22 11:37:11;;;;;;;1.15;1.00;;;;;;;33.27;28.22;101246.08;1547056;90;21084;-47
2022/07/22 11:39:38;;;;;;;2.17;1.30;;;;;;;33.27;28.48;101240.19;1554306;90;21081;-49